Time;durP1;ratioP1;P1;durP2;ratioP2;P2;SDS_P1;SDS_P2;PMS_P1;PMS_P2;Temp;Humidity;BMP_temperature;BMP_pressure;BME280_temperature;BME280_humidity;BME280_pressure;Samples;Min_cycle;Max_cycle;Signal;HPM_P1;HPM_P2
2022/01/18 00:00:10;;;;;;;19.73;6.95;;;;;;;-1.64;100.00;100837.09;5050490;28;20496;-79
2022/01/18 00:02:38;;;;;;;20.48;6.57;;;;;;;-1.44;100.00;100865.63;5052178;28;20365;-79
2022/01/18 00:05:05;;;;;;;20.48;6.68;;;;;;;-1.56;100.00;100851.78;5051974;28;20037;-79
2022/01/18 00:07:30;;;;;;;19.77;6.38;;;;;;;-1.47;100.00;100868.13;5052006;28;20035;-79
2022/01/18 00:09:55;;;;;;;19.15;7.25;;;;;;;-1.63;100.00;100836.28;5052112;28;20104;-79
2022/01/18 00:15:31;;;;;;;21.40;7.30;;;;;;;-1.43;100.00;100885.22;5051628;28;20076;-78
2022/01/18 00:18:18;;;;;;;18.13;7.03;;;;;;;-1.50;100.00;100891.91;5051919;28;20480;-79
2022/01/18 00:23:35;;;;;;;20.23;8.45;;;;;;;-1.58;100.00;100893.44;5052034;28;20107;-79
2022/01/18 00:26:01;;;;;;;22.95;8.30;;;;;;;-1.65;100.00;100883.88;5051627;28;20020;-79
2022/01/18 00:28:29;;;;;;;19.15;8.40;;;;;;;-1.55;100.00;100916.50;5050930;28;20119;-79
2022/01/18 00:33:38;;;;;;;17.55;6.88;;;;;;;-1.59;100.00;100915.56;5051350;28;20072;-79
2022/01/18 00:36:06;;;;;;;20.08;7.55;;;;;;;-1.69;100.00;100905.94;5050396;28;20056;-79
2022/01/18 00:38:43;;;;;;;27.90;9.35;;;;;;;-1.66;100.00;100925.59;5051727;28;20071;-79
2022/01/18 00:41:09;;;;;;;24.77;8.38;;;;;;;-1.67;100.00;100927.28;5051519;28;20021;-79
2022/01/18 00:43:35;;;;;;;23.77;8.80;;;;;;;-1.76;100.00;100914.31;5050190;28;20186;-79
2022/01/18 00:46:01;;;;;;;24.15;8.73;;;;;;;-1.70;100.00;100921.25;5051268;28;20036;-79
2022/01/18 00:48:26;;;;;;;25.08;8.90;;;;;;;-1.74;100.00;100922.84;5050368;28;20032;-79
2022/01/18 00:50:53;;;;;;;21.17;8.75;;;;;;;-1.82;100.00;100912.44;5050353;28;20101;-79
2022/01/18 00:53:20;;;;;;;23.50;7.30;;;;;;;-1.74;100.00;100922.00;5032214;28;20132;-79
2022/01/18 00:56:06;;;;;;;19.20;6.43;;;;;;;-1.77;100.00;100921.13;5013818;28;20469;-79
2022/01/18 00:58:31;;;;;;;26.00;6.25;;;;;;;-1.77;100.00;100918.56;5013863;28;20027;-79
2022/01/18 01:00:57;;;;;;;22.38;6.70;;;;;;;-1.81;100.00;100913.34;5031610;28;20021;-79
2022/01/18 01:03:22;;;;;;;19.73;6.95;;;;;;;-1.76;100.00;100922.84;5031193;28;20377;-79
2022/01/18 01:05:47;;;;;;;18.55;6.22;;;;;;;-1.68;100.00;100932.38;5031525;28;20037;-79
2022/01/18 01:08:13;;;;;;;18.42;6.07;;;;;;;-1.67;100.00;100939.19;5031279;28;20033;-79
2022/01/18 01:10:38;;;;;;;14.82;5.22;;;;;;;-1.78;100.00;100918.50;5031619;28;20034;-79
2022/01/18 01:13:04;;;;;;;19.85;5.75;;;;;;;-1.70;100.00;100934.88;5031217;28;20029;-79
2022/01/18 01:15:36;;;;;;;15.02;5.82;;;;;;;-1.69;100.00;100928.94;5013888;28;20045;-79
2022/01/18 01:44:48;;;;;;;20.92;6.75;;;;;;;-1.91;100.00;100921.59;4954560;29;20031;-79
2022/01/18 01:47:22;;;;;;;16.48;5.93;;;;;;;-1.84;100.00;100941.34;4954328;29;20046;-79
2022/01/18 01:49:50;;;;;;;22.98;5.65;;;;;;;-1.85;100.00;100937.09;4954432;29;20519;-79
2022/01/18 01:52:19;;;;;;;23.40;6.60;;;;;;;-1.94;100.00;100921.50;4973901;28;20065;-80
2022/01/18 01:54:44;;;;;;;19.35;5.68;;;;;;;-1.95;100.00;100925.75;4992839;28;20535;-79
2022/01/18 01:57:10;;;;;;;26.83;8.07;;;;;;;-1.81;100.00;100949.09;4992699;28;20042;-79
2022/01/18 01:59:35;;;;;;;21.50;6.75;;;;;;;-1.93;100.00;100923.25;4992593;28;20101;-79
2022/01/18 02:02:01;;;;;;;22.10;6.22;;;;;;;-1.84;100.00;100937.09;4976226;28;20045;-80
2022/01/18 02:04:27;;;;;;;17.95;5.65;;;;;;;-1.89;100.00;100923.38;4992455;28;20066;-79
2022/01/18 02:06:52;;;;;;;26.33;7.28;;;;;;;-1.86;100.00;100920.00;4976071;28;20393;-79
2022/01/18 02:09:18;;;;;;;21.58;6.78;;;;;;;-1.93;100.00;100918.16;4976147;28;20042;-79
2022/01/18 02:11:44;;;;;;;19.95;6.28;;;;;;;-1.90;100.00;100918.22;4992513;28;20034;-79
2022/01/18 02:14:15;;;;;;;17.92;5.97;;;;;;;-1.83;100.00;100936.28;4992339;28;20165;-79
2022/01/18 02:22:10;;;;;;;19.38;6.60;;;;;;;-1.78;100.00;100942.34;5054004;28;20051;-79
2022/01/18 02:24:35;;;;;;;17.48;5.85;;;;;;;-1.80;100.00;100941.47;5052626;28;20108;-79
2022/01/18 02:27:02;;;;;;;20.75;6.80;;;;;;;-1.84;100.00;100942.22;5053725;28;20064;-79
2022/01/18 02:29:27;;;;;;;17.27;6.45;;;;;;;-1.85;100.00;100937.94;5053800;28;20021;-79
2022/01/18 02:31:54;;;;;;;20.30;6.20;;;;;;;-1.78;100.00;100946.59;5053585;28;20061;-79
2022/01/18 02:34:21;;;;;;;13.70;6.22;;;;;;;-1.86;100.00;100943.00;5052430;28;20139;-79
2022/01/18 02:36:47;;;;;;;19.02;6.15;;;;;;;-1.88;100.00;100944.66;5053929;28;20060;-79
2022/01/18 02:39:18;;;;;;;18.00;5.43;;;;;;;-1.83;100.00;100950.72;5053585;28;20488;-79
2022/01/18 02:41:54;;;;;;;17.67;5.40;;;;;;;-1.79;100.00;100962.75;5052456;28;20396;-80
2022/01/18 02:44:20;;;;;;;15.82;5.57;;;;;;;-1.91;100.00;100949.69;5053284;28;20068;-79
2022/01/18 02:46:45;;;;;;;18.17;4.90;;;;;;;-1.87;100.00;100962.56;5052095;28;20060;-79
2022/01/18 02:49:10;;;;;;;19.33;4.78;;;;;;;-1.82;100.00;100965.22;5052074;28;20032;-79
2022/01/18 02:51:36;;;;;;;19.70;5.13;;;;;;;-1.94;100.00;100939.38;5047336;28;20052;-79
2022/01/18 02:54:08;;;;;;;16.63;4.80;;;;;;;-1.96;100.00;100941.91;5033554;28;20032;-79
2022/01/18 02:56:33;;;;;;;15.60;5.22;;;;;;;-1.84;100.00;100961.78;5033404;28;20092;-79
2022/01/18 02:59:14;;;;;;;18.83;5.00;;;;;;;-1.88;100.00;100958.28;5033148;28;20029;-79
2022/01/18 03:04:24;;;;;;;15.05;5.60;;;;;;;-1.97;100.00;100970.81;5033013;28;20069;-79
2022/01/18 03:06:49;;;;;;;18.95;5.35;;;;;;;-1.93;100.00;100982.84;5033270;28;20021;-79
2022/01/18 03:09:15;;;;;;;16.83;5.43;;;;;;;-1.96;100.00;100981.91;5015172;28;20116;-79
2022/01/18 03:11:40;;;;;;;15.70;5.45;;;;;;;-1.96;100.00;100976.78;5015148;28;20025;-79
2022/01/18 03:14:06;;;;;;;19.50;5.45;;;;;;;-1.99;100.00;100976.72;5032786;28;20061;-79
2022/01/18 03:16:32;;;;;;;17.08;5.35;;;;;;;-2.06;100.00;100983.38;5033176;28;20072;-79
2022/01/18 03:18:57;;;;;;;19.63;4.93;;;;;;;-2.01;100.00;101003.06;5033027;28;20032;-79
2022/01/18 03:21:23;;;;;;;20.85;5.85;;;;;;;-2.01;100.00;101004.75;5014950;28;20039;-79
2022/01/18 03:23:53;;;;;;;18.80;5.00;;;;;;;-2.02;100.00;100995.38;5015081;28;20116;-79
2022/01/18 03:26:19;;;;;;;24.53;6.17;;;;;;;-1.94;100.00;101003.22;5014749;28;20022;-79
2022/01/18 03:28:45;;;;;;;15.02;5.15;;;;;;;-2.06;100.00;101004.66;5032849;28;20535;-79
2022/01/18 03:31:11;;;;;;;20.17;6.35;;;;;;;-1.98;100.00;101022.72;5032571;28;20061;-79
2022/01/18 03:33:36;;;;;;;19.48;6.88;;;;;;;-2.02;100.00;101018.34;5033004;28;20021;-79
2022/01/18 03:36:05;;;;;;;20.55;5.95;;;;;;;-2.07;100.00;101020.75;5032548;28;20021;-79
2022/01/18 03:38:31;;;;;;;20.90;6.32;;;;;;;-2.03;100.00;101030.22;5032549;28;20028;-79
2022/01/18 03:41:01;;;;;;;18.38;6.15;;;;;;;-2.09;100.00;101014.75;5032691;28;20033;-79
2022/01/18 03:43:29;;;;;;;21.40;6.20;;;;;;;-2.02;100.00;101020.91;5032695;28;20516;-79
2022/01/18 03:46:00;;;;;;;25.83;6.55;;;;;;;-2.07;100.00;101023.31;5032593;28;20038;-79
2022/01/18 03:48:35;;;;;;;18.77;6.00;;;;;;;-2.17;100.00;101016.25;5014726;28;20523;-79
2022/01/18 03:51:03;;;;;;;21.30;5.78;;;;;;;-2.14;100.00;101026.56;5031937;28;20234;-79
2022/01/18 03:53:29;;;;;;;16.17;6.43;;;;;;;-2.12;100.00;101030.00;5014591;28;20026;-79
2022/01/18 03:55:54;;;;;;;18.33;6.50;;;;;;;-2.11;100.00;101036.81;5032293;28;20036;-79
2022/01/18 03:58:21;;;;;;;19.67;6.03;;;;;;;-2.21;100.00;101018.69;4990091;28;20461;-79
2022/01/18 04:00:46;;;;;;;19.23;6.18;;;;;;;-2.21;100.00;101014.44;4974103;28;20057;-79
2022/01/18 04:03:12;;;;;;;18.77;6.70;;;;;;;-2.13;100.00;101017.19;4989956;28;20514;-79
2022/01/18 04:05:38;;;;;;;18.63;6.45;;;;;;;-2.18;100.00;101011.97;4974064;28;20084;-79
2022/01/18 04:08:04;;;;;;;25.27;6.45;;;;;;;-2.14;100.00;101024.00;4973836;28;20486;-79
2022/01/18 04:10:30;;;;;;;21.42;5.88;;;;;;;-2.11;100.00;101030.84;4973930;28;20552;-79
2022/01/18 04:12:56;;;;;;;27.80;6.70;;;;;;;-2.14;100.00;101031.66;4990221;28;20034;-79
2022/01/18 04:15:23;;;;;;;21.27;5.97;;;;;;;-2.13;100.00;101035.06;4973656;28;20490;-79
2022/01/18 04:30:49;;;;;;;16.80;6.35;;;;;;;-2.25;100.00;101050.91;5031629;28;20112;-78
2022/01/18 04:33:15;;;;;;;18.33;5.93;;;;;;;-2.14;100.00;101080.16;5031633;28;20453;-78
2022/01/18 04:35:40;;;;;;;21.10;6.65;;;;;;;-2.18;100.00;101088.53;5032008;28;20025;-78
2022/01/18 04:38:05;;;;;;;19.45;5.88;;;;;;;-2.26;100.00;101064.50;5013974;28;20076;-79
2022/01/18 04:40:33;;;;;;;22.40;6.72;;;;;;;-2.18;100.00;101078.34;5031962;28;20025;-79
2022/01/18 04:43:05;;;;;;;24.60;6.40;;;;;;;-2.18;100.00;101091.09;5031719;28;20025;-78
2022/01/18 04:50:50;;;;;;;21.42;7.35;;;;;;;-2.31;100.00;101082.22;5031705;28;20393;-78
2022/01/18 04:53:16;;;;;;;30.90;9.52;;;;;;;-2.25;100.00;101096.84;5031176;28;20041;-78
2022/01/18 04:55:41;;;;;;;32.70;9.98;;;;;;;-2.30;100.00;101088.19;5031439;28;20112;-78
2022/01/18 04:58:07;;;;;;;32.08;9.80;;;;;;;-2.26;100.00;101101.09;5031429;28;20030;-78
2022/01/18 05:00:32;;;;;;;27.45;9.95;;;;;;;-2.34;100.00;101094.03;5031781;28;20452;-78
2022/01/18 05:02:58;;;;;;;25.75;9.73;;;;;;;-2.32;100.00;101107.69;5031986;28;20033;-78
2022/01/18 05:05:29;;;;;;;32.58;10.25;;;;;;;-2.37;100.00;101093.94;5031281;28;20034;-78
2022/01/18 05:08:01;;;;;;;31.20;10.98;;;;;;;-2.28;100.00;101112.91;5031507;28;20080;-78
2022/01/18 05:10:29;;;;;;;32.65;11.23;;;;;;;-2.34;100.00;101112.75;5013568;28;20032;-79
2022/01/18 05:12:57;;;;;;;30.27;10.20;;;;;;;-2.37;100.00;101111.78;5031561;28;20144;-78
2022/01/18 05:21:08;;;;;;;23.85;8.45;;;;;;;-2.48;100.00;101100.44;5035457;28;20152;-79
2022/01/18 05:23:28;;;;;;;20.65;7.45;;;;;;;-2.45;100.00;101124.31;5035283;28;20030;-79
2022/01/18 05:25:54;;;;;;;27.27;7.53;;;;;;;-2.49;100.00;101108.88;5035557;28;20067;-79
2022/01/18 05:28:19;;;;;;;21.23;7.05;;;;;;;-2.46;100.00;101122.59;5017322;28;20722;-78
2022/01/18 05:30:44;;;;;;;24.50;7.75;;;;;;;-2.60;100.00;101113.69;5034526;28;20144;-78
2022/01/18 05:33:10;;;;;;;21.83;7.35;;;;;;;-2.57;100.00;101112.09;5034447;28;20040;-78
2022/01/18 05:35:36;;;;;;;19.38;7.30;;;;;;;-2.59;100.00;101102.66;5035060;28;20028;-78
2022/01/18 05:38:01;;;;;;;15.00;6.47;;;;;;;-2.58;100.00;101124.78;5016992;28;20025;-79
2022/01/18 05:40:27;;;;;;;22.73;7.15;;;;;;;-2.62;100.00;101128.06;5034799;28;20021;-79
2022/01/18 05:42:53;;;;;;;19.75;6.95;;;;;;;-2.66;100.00;101116.03;5016932;28;20033;-79
2022/01/18 05:45:18;;;;;;;24.95;6.82;;;;;;;-2.64;100.00;101134.81;5016647;28;20049;-79
2022/01/18 05:47:44;;;;;;;23.70;6.70;;;;;;;-2.70;100.00;101138.00;5034403;28;20065;-79
2022/01/18 05:50:11;;;;;;;17.45;6.88;;;;;;;-2.79;100.00;101117.34;5034476;28;20029;-78
2022/01/18 05:52:38;;;;;;;24.20;6.80;;;;;;;-2.72;100.00;101124.38;5036491;28;20111;-78
2022/01/18 05:55:05;;;;;;;19.48;6.43;;;;;;;-2.69;100.00;101129.56;5034413;28;20026;-78
2022/01/18 05:57:31;;;;;;;30.08;9.30;;;;;;;-2.77;100.00;101126.78;5034557;28;20485;-78
2022/01/18 06:00:07;;;;;;;35.60;11.32;;;;;;;-2.85;100.00;101099.31;5034206;28;20026;-78
2022/01/18 06:02:43;;;;;;;37.83;14.57;;;;;;;-2.78;100.00;101122.50;5034438;28;20029;-78
2022/01/18 06:07:55;;;;;;;48.58;21.17;;;;;;;-2.82;100.00;101113.03;5034493;28;20111;-78
2022/01/18 06:10:21;;;;;;;36.38;17.65;;;;;;;-2.77;100.00;101125.91;5033927;28;20029;-78
2022/01/18 06:12:47;;;;;;;39.47;18.85;;;;;;;-2.72;100.00;101131.16;5033834;28;20476;-76
2022/01/18 06:15:13;;;;;;;46.95;16.83;;;;;;;-2.72;100.00;101119.25;5034100;28;20026;-76
2022/01/18 06:17:41;;;;;;;41.33;16.20;;;;;;;-2.57;100.00;101127.41;5034223;28;20100;-77
2022/01/18 06:20:10;;;;;;;36.22;14.70;;;;;;;-2.46;100.00;101132.81;5033916;28;20033;-76
2022/01/18 06:22:35;;;;;;;34.03;11.23;;;;;;;-2.46;100.00;101117.50;5034046;28;20025;-76
2022/01/18 06:25:00;;;;;;;28.58;10.18;;;;;;;-2.35;100.00;101126.34;5034303;28;20068;-76
2022/01/18 06:27:27;;;;;;;30.67;10.48;;;;;;;-2.21;100.00;101138.63;5034105;28;20029;-76
2022/01/18 06:29:55;;;;;;;34.63;12.00;;;;;;;-2.13;100.00;101135.47;5033963;28;20098;-76
2022/01/18 06:32:21;;;;;;;33.03;12.25;;;;;;;-2.11;100.00;101131.25;5033772;28;20037;-76
2022/01/18 06:34:46;;;;;;;41.67;13.52;;;;;;;-1.99;100.00;101137.56;5033903;28;20025;-76
2022/01/18 06:37:12;;;;;;;35.85;11.35;;;;;;;-2.08;100.00;101110.06;5033397;28;20025;-76
2022/01/18 06:39:38;;;;;;;31.45;9.65;;;;;;;-1.84;100.00;101146.50;5033608;28;20021;-76
2022/01/18 06:42:04;;;;;;;26.25;9.60;;;;;;;-1.80;100.00;101153.44;5033279;28;20025;-76
2022/01/18 06:44:30;;;;;;;32.83;10.70;;;;;;;-1.65;100.00;101162.31;5033453;28;20029;-76
2022/01/18 06:46:56;;;;;;;35.25;11.27;;;;;;;-1.54;100.00;101174.56;5033502;28;20086;-76
2022/01/18 06:49:21;;;;;;;31.65;12.32;;;;;;;-1.45;100.00;101186.72;5033235;28;20512;-76
2022/01/18 06:51:47;;;;;;;35.38;11.75;;;;;;;-1.39;100.00;101184.34;5033223;28;20056;-76
2022/01/18 06:54:17;;;;;;;32.80;10.25;;;;;;;-1.33;100.00;101183.63;5033181;28;20025;-76
2022/01/18 06:56:47;;;;;;;28.23;9.23;;;;;;;-1.31;100.00;101175.19;5033206;28;20030;-78
2022/01/18 06:59:13;;;;;;;33.92;10.68;;;;;;;-1.16;100.00;101187.50;5033194;28;20036;-78
2022/01/18 07:01:40;;;;;;;37.75;12.18;;;;;;;-1.14;100.00;101190.09;5015531;28;20030;-78
2022/01/18 07:04:05;;;;;;;40.70;15.88;;;;;;;-1.09;100.00;101199.63;5033395;28;20041;-79
2022/01/18 07:06:32;;;;;;;35.42;14.98;;;;;;;-1.06;100.00;101193.69;4972126;28;20051;-78
2022/01/18 07:08:58;;;;;;;38.42;12.30;;;;;;;-0.98;100.00;101204.13;4972004;28;20046;-78
2022/01/18 07:11:23;;;;;;;35.90;14.65;;;;;;;-1.06;100.00;101183.47;4971481;28;20050;-78
2022/01/18 07:13:50;;;;;;;33.28;13.43;;;;;;;-0.97;100.00;101190.50;4971918;28;20031;-78
2022/01/18 07:16:16;;;;;;;31.25;13.25;;;;;;;-0.85;100.00;101211.28;4971530;28;20109;-79
2022/01/18 07:18:43;;;;;;;31.77;11.93;;;;;;;-0.83;100.00;101210.50;4971780;28;20473;-79
2022/01/18 07:21:11;;;;;;;30.88;12.27;;;;;;;-0.80;100.00;101215.69;4955215;28;20053;-79
2022/01/18 07:23:37;;;;;;;36.80;12.10;;;;;;;-0.73;100.00;101226.94;4955228;28;20034;-79
2022/01/18 07:26:03;;;;;;;32.67;13.80;;;;;;;-0.70;100.00;101228.72;4955117;28;20038;-79
2022/01/18 07:28:29;;;;;;;65.35;30.02;;;;;;;-0.73;100.00;101226.06;4932036;29;20036;-79
2022/01/18 07:30:56;;;;;;;34.35;14.70;;;;;;;-0.74;100.00;101214.97;4913797;29;20055;-79
2022/01/18 07:33:21;;;;;;;30.08;13.05;;;;;;;-0.66;100.00;101225.41;4898149;29;20535;-79
2022/01/18 07:35:47;;;;;;;36.97;11.82;;;;;;;-0.70;100.00;101219.34;4913930;29;20044;-79
2022/01/18 07:38:16;;;;;;;34.13;15.10;;;;;;;-0.55;100.00;101236.72;4958367;28;20406;-79
2022/01/18 07:40:43;;;;;;;34.47;11.55;;;;;;;-0.48;100.00;101245.44;4971293;28;20044;-79
2022/01/18 07:43:15;;;;;;;34.33;11.70;;;;;;;-0.45;100.00;101248.06;4954961;28;20069;-79
2022/01/18 07:45:42;;;;;;;33.50;13.73;;;;;;;-0.38;100.00;101249.94;4954915;28;20058;-79
2022/01/18 07:48:08;;;;;;;36.75;16.17;;;;;;;-0.34;100.00;101252.63;4954683;28;20142;-79
2022/01/18 07:50:34;;;;;;;34.42;14.73;;;;;;;-0.43;100.00;101239.59;4951639;28;20043;-79
2022/01/18 07:52:59;;;;;;;33.47;14.15;;;;;;;-0.35;100.00;101250.88;4965474;28;20637;-79
2022/01/18 07:55:25;;;;;;;36.47;12.65;;;;;;;-0.38;100.00;101245.72;4954588;28;20039;-79
2022/01/18 07:57:51;;;;;;;35.28;12.27;;;;;;;-0.26;100.00;101271.56;4970998;28;20035;-79
2022/01/18 08:00:17;;;;;;;45.05;14.65;;;;;;;-0.34;100.00;101265.44;4986758;28;20073;-79
2022/01/18 08:02:44;;;;;;;38.08;12.77;;;;;;;-0.31;100.00;101280.84;5023097;28;20489;-79
2022/01/18 08:05:10;;;;;;;35.25;11.68;;;;;;;-0.23;100.00;101288.72;5012793;28;20120;-79
2022/01/18 08:07:36;;;;;;;30.73;12.13;;;;;;;-0.29;100.00;101281.75;5029691;28;20099;-79
2022/01/18 08:10:04;;;;;;;37.70;12.40;;;;;;;-0.33;100.00;101271.41;5029513;28;20037;-78
2022/01/18 08:12:30;;;;;;;35.33;11.18;;;;;;;-0.15;100.00;101302.56;5029517;28;20152;-78
2022/01/18 08:15:00;;;;;;;45.70;17.52;;;;;;;-0.17;100.00;101306.78;5029495;28;20113;-78
2022/01/18 08:17:26;;;;;;;27.60;11.80;;;;;;;-0.16;100.00;101293.16;5019719;28;20037;-79
2022/01/18 08:19:51;;;;;;;47.47;18.42;;;;;;;-0.15;100.00;101281.22;5002551;28;20028;-78
2022/01/18 08:22:17;;;;;;;42.20;15.68;;;;;;;-0.19;100.00;101267.47;4994700;28;20470;-78
2022/01/18 08:24:43;;;;;;;35.88;14.52;;;;;;;-0.07;100.00;101290.78;5008880;28;20474;-78
2022/01/18 08:27:09;;;;;;;40.90;13.27;;;;;;;0.03;100.00;101303.81;5015442;28;20052;-80
2022/01/18 08:29:36;;;;;;;42.92;14.35;;;;;;;0.01;100.00;101297.81;5050621;28;20388;-79
2022/01/18 08:32:03;;;;;;;34.90;12.80;;;;;;;0.08;100.00;101310.75;5050023;28;20102;-78
2022/01/18 08:34:28;;;;;;;34.15;14.02;;;;;;;0.10;100.00;101316.78;5050458;28;20412;-79
2022/01/18 08:36:53;;;;;;;38.40;15.43;;;;;;;0.10;100.00;101300.56;5050666;28;20021;-80
2022/01/18 08:39:19;;;;;;;40.85;14.57;;;;;;;0.21;100.00;101317.03;5051554;28;20070;-79
2022/01/18 08:41:44;;;;;;;38.22;13.05;;;;;;;0.26;100.00;101322.28;5050484;28;20029;-79
2022/01/18 08:44:09;;;;;;;33.28;12.93;;;;;;;0.29;100.00;101330.00;5050153;28;20050;-79
2022/01/18 08:46:35;;;;;;;45.00;16.23;;;;;;;0.27;100.00;101317.16;5051565;28;20108;-79
2022/01/18 08:49:03;;;;;;;40.22;15.05;;;;;;;0.36;100.00;101319.06;5049854;28;20403;-79
2022/01/18 08:51:28;;;;;;;33.67;15.20;;;;;;;0.28;100.00;101315.47;5052250;28;20096;-80
2022/01/18 08:53:54;;;;;;;45.25;17.50;;;;;;;0.26;100.00;101314.59;5014163;28;20112;-80
2022/01/18 08:56:21;;;;;;;75.60;26.88;;;;;;;0.27;100.00;101313.75;5006466;28;20127;-80
2022/01/18 08:58:47;;;;;;;46.97;17.23;;;;;;;0.37;100.00;101338.72;5028548;28;20080;-78
2022/01/18 09:01:13;;;;;;;29.65;11.23;;;;;;;0.23;100.00;101329.03;5014191;28;20033;-79
2022/01/18 09:03:39;;;;;;;33.78;11.40;;;;;;;0.36;100.00;101345.56;5025328;28;20528;-79
2022/01/18 09:06:06;;;;;;;26.42;12.38;;;;;;;0.38;100.00;101354.16;5033976;28;20029;-78
2022/01/18 09:08:33;;;;;;;31.83;15.07;;;;;;;0.31;100.00;101336.91;5034003;28;20057;-78
2022/01/18 09:10:58;;;;;;;24.17;12.00;;;;;;;0.46;100.00;101356.88;5032990;28;20033;-79
2022/01/18 09:13:24;;;;;;;24.20;11.55;;;;;;;0.42;100.00;101343.16;4996272;28;20033;-78
2022/01/18 09:15:50;;;;;;;32.75;12.93;;;;;;;0.57;100.00;101364.81;5014394;28;20022;-79
2022/01/18 09:18:16;;;;;;;28.88;13.38;;;;;;;0.48;100.00;101339.84;5014194;28;20083;-79
2022/01/18 09:20:41;;;;;;;33.25;12.93;;;;;;;0.51;100.00;101337.34;4996888;28;20462;-79
2022/01/18 09:23:07;;;;;;;32.65;13.85;;;;;;;0.68;100.00;101363.34;5014134;28;20030;-79
2022/01/18 09:25:33;;;;;;;27.55;11.55;;;;;;;0.70;100.00;101369.38;4996865;28;20034;-78
2022/01/18 09:27:59;;;;;;;35.83;11.10;;;;;;;0.77;100.00;101373.78;4997423;28;20453;-79
2022/01/18 09:30:27;;;;;;;27.75;11.70;;;;;;;0.65;100.00;101356.44;5034003;28;20378;-79
2022/01/18 09:32:54;;;;;;;36.42;11.48;;;;;;;0.81;100.00;101369.59;5033717;28;20061;-79
2022/01/18 09:35:20;;;;;;;26.58;10.55;;;;;;;0.95;100.00;101375.88;5016099;28;20088;-80
2022/01/18 09:37:46;;;;;;;30.08;12.32;;;;;;;1.03;100.00;101378.59;5033901;28;20029;-80
2022/01/18 09:40:15;;;;;;;31.85;11.85;;;;;;;1.02;100.00;101374.31;5015739;28;20087;-80
2022/01/18 09:42:43;;;;;;;25.85;11.02;;;;;;;1.10;100.00;101383.03;5033812;28;20057;-80
2022/01/18 09:45:13;;;;;;;25.17;11.43;;;;;;;1.04;100.00;101394.00;5016016;28;20033;-80
2022/01/18 09:47:42;;;;;;;34.58;11.50;;;;;;;1.12;100.00;101387.31;5033939;28;20083;-80
2022/01/18 09:50:10;;;;;;;32.60;14.05;;;;;;;1.13;100.00;101381.34;5016228;28;20029;-79
2022/01/18 09:52:37;;;;;;;33.30;12.85;;;;;;;1.31;100.00;101383.44;4994023;28;1158231;-79
2022/01/18 09:55:04;;;;;;;27.30;11.93;;;;;;;1.34;100.00;101398.00;5016866;28;20037;-79
2022/01/18 09:57:30;;;;;;;32.95;12.05;;;;;;;1.32;100.00;101387.72;5034620;28;20021;-79
2022/01/18 09:59:56;;;;;;;36.40;16.50;;;;;;;1.11;100.00;101361.66;5034137;28;20080;-79
2022/01/18 10:02:22;;;;;;;53.65;21.60;;;;;;;1.30;100.00;101398.78;5013841;28;20132;-79
2022/01/18 10:04:49;;;;;;;39.38;15.02;;;;;;;1.29;100.00;101407.31;5014785;28;20122;-79
2022/01/18 10:07:15;;;;;;;24.48;11.70;;;;;;;1.33;100.00;101414.25;4981186;28;20087;-79
2022/01/18 10:09:41;;;;;;;26.58;12.02;;;;;;;1.29;100.00;101390.22;5015013;28;20116;-80
2022/01/18 10:12:13;;;;;;;30.55;12.50;;;;;;;1.49;100.00;101416.28;4996739;28;20421;-80
2022/01/18 10:14:51;;;;;;;27.38;10.43;;;;;;;1.58;100.00;101411.31;5014475;28;20109;-79
2022/01/18 10:17:30;;;;;;;21.88;9.90;;;;;;;1.54;100.00;101391.53;5014285;28;20022;-79
2022/01/18 10:20:05;;;;;;;25.98;11.75;;;;;;;1.57;100.00;101390.75;5029948;28;20037;-79
2022/01/18 10:22:40;;;;;;;26.50;12.05;;;;;;;1.69;100.00;101414.94;5016500;28;20029;-79
2022/01/18 10:25:34;;;;;;;30.15;12.43;;;;;;;1.82;100.00;101433.16;5030808;28;20040;-79
2022/01/18 10:27:59;;;;;;;23.13;10.13;;;;;;;1.86;100.00;101434.94;4934823;29;20036;-79
2022/01/18 10:30:38;;;;;;;24.38;9.75;;;;;;;1.90;100.00;101427.31;4934495;29;20048;-79
2022/01/18 10:33:12;;;;;;;31.30;10.93;;;;;;;1.92;100.00;101420.47;4918193;29;20442;-80
2022/01/18 10:36:15;;;;;;;35.97;15.13;;;;;;;1.86;100.00;101420.38;4934100;29;20666;-79
2022/01/18 10:38:47;;;;;;;24.58;9.82;;;;;;;1.86;100.00;101427.22;4877834;29;20049;-79
2022/01/18 10:41:33;;;;;;;22.77;9.75;;;;;;;1.91;100.00;101444.44;4877176;29;20037;-80
2022/01/18 10:44:05;;;;;;;29.40;12.05;;;;;;;1.75;100.00;101416.75;4877355;29;20029;-79
2022/01/18 10:46:39;;;;;;;27.30;11.70;;;;;;;2.07;100.00;101462.72;4877407;29;20056;-80
2022/01/18 10:49:05;;;;;;;25.75;12.52;;;;;;;2.06;100.00;101455.81;4874752;29;20037;-80
2022/01/18 10:51:35;;;;;;;21.73;10.65;;;;;;;2.10;100.00;101448.16;4878940;29;20075;-79
2022/01/18 10:54:09;;;;;;;28.77;11.80;;;;;;;2.13;100.00;101437.94;4895955;29;20044;-79
2022/01/18 10:56:45;;;;;;;36.33;15.40;;;;;;;2.11;100.00;101433.66;4895955;29;20048;-80
2022/01/18 10:59:21;;;;;;;30.17;12.88;;;;;;;2.23;100.00;101437.28;4895669;29;20048;-80
2022/01/18 11:02:21;;;;;;;34.13;11.70;;;;;;;2.29;100.00;101423.66;4896031;29;20044;-80
2022/01/18 11:04:48;;;;;;;30.92;11.73;;;;;;;2.40;100.00;101445.25;4886750;29;20051;-79
2022/01/18 11:07:18;;;;;;;23.27;9.98;;;;;;;2.28;100.00;101433.91;4923742;29;20427;-80
2022/01/18 11:09:43;;;;;;;21.17;9.40;;;;;;;2.33;100.00;101445.13;4917868;29;20067;-80
2022/01/18 11:12:10;;;;;;;33.88;13.70;;;;;;;2.22;100.00;101422.66;4953958;28;20074;-80
2022/01/18 11:14:45;;;;;;;27.52;10.82;;;;;;;2.31;100.00;101439.09;4995839;28;20030;-80
2022/01/18 11:17:19;;;;;;;31.30;10.52;;;;;;;2.21;100.00;101418.38;4995510;28;20037;-80
2022/01/18 11:19:47;;;;;;;23.55;10.55;;;;;;;2.24;100.00;101446.72;5013368;28;20033;-80
2022/01/18 11:22:13;;;;;;;30.13;11.07;;;;;;;2.27;100.00;101455.31;4995348;28;20034;-80
2022/01/18 11:24:44;;;;;;;37.90;12.80;;;;;;;2.19;100.00;101432.94;4995556;28;20478;-80
2022/01/18 11:27:14;;;;;;;25.48;9.40;;;;;;;2.31;100.00;101441.66;4995171;28;20124;-79
2022/01/18 11:29:45;;;;;;;29.60;10.27;;;;;;;2.27;100.00;101432.16;4995559;28;20026;-80
2022/01/18 11:32:11;;;;;;;25.75;10.45;;;;;;;2.33;100.00;101433.13;5012787;28;20036;-80
2022/01/18 11:34:57;;;;;;;26.92;13.70;;;;;;;2.45;100.00;101432.47;5012901;28;20101;-80
2022/01/18 11:37:31;;;;;;;32.33;14.82;;;;;;;2.59;100.00;101445.53;5012594;28;20041;-79
2022/01/18 11:40:04;;;;;;;26.50;11.52;;;;;;;2.46;100.00;101422.19;4995089;28;20030;-80
2022/01/18 11:42:46;;;;;;;33.88;13.60;;;;;;;2.63;100.00;101449.88;4995412;28;20065;-79
2022/01/18 11:45:43;;;;;;;27.05;13.27;;;;;;;2.60;100.00;101444.69;5012863;28;20025;-80
2022/01/18 11:48:11;;;;;;;28.95;10.88;;;;;;;2.56;100.00;101445.47;4935763;29;20070;-80
2022/01/18 11:50:42;;;;;;;31.25;11.60;;;;;;;2.43;100.00;101429.00;4952034;29;20035;-79
2022/01/18 11:56:39;;;;;;;25.88;12.38;;;;;;;2.31;100.00;101451.94;4971153;28;20582;-80
2022/01/18 11:59:25;;;;;;;31.08;12.98;;;;;;;2.23;100.00;101446.66;4963318;28;20049;-79
2022/01/18 12:01:55;;;;;;;25.52;12.18;;;;;;;2.07;100.00;101434.44;4951844;29;20034;-80
2022/01/18 12:04:46;;;;;;;28.85;13.63;;;;;;;2.12;100.00;101437.94;4969617;28;20964;-79
2022/01/18 12:07:30;;;;;;;;;;;;;;;2.12;100.00;101441.38;4971486;28;20045;-80
2022/01/18 12:09:55;;;;;;;33.65;13.52;;;;;;;2.08;100.00;101436.16;4954863;28;19910;-80
2022/01/18 12:12:44;;;;;;;35.10;16.85;;;;;;;2.12;100.00;101428.53;4970340;28;20646;-80
2022/01/18 12:15:16;;;;;;;34.60;16.13;;;;;;;2.20;100.00;101429.50;4969808;28;20031;-80
2022/01/18 12:18:10;;;;;;;24.58;11.02;;;;;;;2.20;100.00;101433.78;4970248;28;20598;-80
2022/01/18 12:20:42;;;;;;;25.10;11.00;;;;;;;2.20;100.00;101436.34;4971073;28;20038;-80
2022/01/18 12:23:27;;;;;;;20.42;9.07;;;;;;;2.05;100.00;101411.25;4933905;28;20117;-80
2022/01/18 12:34:34;;;;;;;21.73;8.82;;;;;;;1.81;100.00;101434.81;4989815;28;20074;-80